sensor_id;sensor_type;location;lat;lon;timestamp;P1;durP1;ratioP1;P2;durP2;ratioP2
40533;SDS011;26233;51.894;10.192;2023-07-28T00:00:58;1.30;;;1.20;;
40533;SDS011;26233;51.894;10.192;2023-07-28T00:03:27;1.55;;;1.40;;
40533;SDS011;26233;51.894;10.192;2023-07-28T00:05:54;1.60;;;1.50;;
40533;SDS011;26233;51.894;10.192;2023-07-28T00:08:21;1.40;;;1.30;;
40533;SDS011;26233;51.894;10.192;2023-07-28T00:10:48;1.88;;;1.60;;
40533;SDS011;26233;51.894;10.192;2023-07-28T00:13:15;1.75;;;1.63;;
40533;SDS011;26233;51.894;10.192;2023-07-28T00:15:42;2.15;;;1.50;;
40533;SDS011;26233;51.894;10.192;2023-07-28T00:18:09;1.70;;;1.60;;
40533;SDS011;26233;51.894;10.192;2023-07-28T00:20:38;1.70;;;1.60;;
40533;SDS011;26233;51.894;10.192;2023-07-28T00:23:05;2.58;;;1.58;;
40533;SDS011;26233;51.894;10.192;2023-07-28T00:25:32;1.30;;;1.20;;
40533;SDS011;26233;51.894;10.192;2023-07-28T00:27:59;1.70;;;1.60;;
40533;SDS011;26233;51.894;10.192;2023-07-28T00:30:26;1.45;;;1.35;;
40533;SDS011;26233;51.894;10.192;2023-07-28T00:32:53;1.25;;;1.15;;
40533;SDS011;26233;51.894;10.192;2023-07-28T00:35:20;1.58;;;1.48;;
40533;SDS011;26233;51.894;10.192;2023-07-28T00:37:48;1.60;;;1.50;;
40533;SDS011;26233;51.894;10.192;2023-07-28T00:40:15;1.27;;;1.17;;
40533;SDS011;26233;51.894;10.192;2023-07-28T00:42:42;1.25;;;1.15;;
40533;SDS011;26233;51.894;10.192;2023-07-28T00:45:10;0.90;;;0.90;;
40533;SDS011;26233;51.894;10.192;2023-07-28T00:47:37;1.83;;;1.27;;
40533;SDS011;26233;51.894;10.192;2023-07-28T00:50:04;0.73;;;0.73;;
40533;SDS011;26233;51.894;10.192;2023-07-28T00:52:33;1.10;;;0.80;;
40533;SDS011;26233;51.894;10.192;2023-07-28T00:55:02;1.02;;;0.80;;
40533;SDS011;26233;51.894;10.192;2023-07-28T00:57:30;1.35;;;0.98;;
40533;SDS011;26233;51.894;10.192;2023-07-28T00:59:57;0.68;;;0.68;;
40533;SDS011;26233;51.894;10.192;2023-07-28T01:02:24;0.70;;;0.70;;
40533;SDS011;26233;51.894;10.192;2023-07-28T01:04:51;0.70;;;0.70;;
40533;SDS011;26233;51.894;10.192;2023-07-28T01:07:21;1.10;;;0.80;;
40533;SDS011;26233;51.894;10.192;2023-07-28T01:09:55;0.63;;;0.60;;
40533;SDS011;26233;51.894;10.192;2023-07-28T01:12:37;0.60;;;0.60;;
40533;SDS011;26233;51.894;10.192;2023-07-28T01:15:04;1.45;;;0.70;;
40533;SDS011;26233;51.894;10.192;2023-07-28T01:17:32;1.27;;;0.60;;
40533;SDS011;26233;51.894;10.192;2023-07-28T01:20:00;0.80;;;0.60;;
40533;SDS011;26233;51.894;10.192;2023-07-28T01:22:37;0.63;;;0.60;;
40533;SDS011;26233;51.894;10.192;2023-07-28T01:25:18;1.10;;;0.63;;
40533;SDS011;26233;51.894;10.192;2023-07-28T01:27:58;0.93;;;0.60;;
40533;SDS011;26233;51.894;10.192;2023-07-28T01:30:27;1.80;;;0.50;;
40533;SDS011;26233;51.894;10.192;2023-07-28T01:32:56;1.35;;;0.50;;
40533;SDS011;26233;51.894;10.192;2023-07-28T01:35:24;0.82;;;0.50;;
40533;SDS011;26233;51.894;10.192;2023-07-28T01:37:52;0.40;;;0.40;;
40533;SDS011;26233;51.894;10.192;2023-07-28T01:40:19;0.65;;;0.50;;
40533;SDS011;26233;51.894;10.192;2023-07-28T01:42:46;0.40;;;0.40;;
40533;SDS011;26233;51.894;10.192;2023-07-28T01:45:18;1.05;;;0.55;;
40533;SDS011;26233;51.894;10.192;2023-07-28T01:47:45;0.40;;;0.40;;
40533;SDS011;26233;51.894;10.192;2023-07-28T01:50:12;3.33;;;0.68;;
40533;SDS011;26233;51.894;10.192;2023-07-28T01:52:39;0.40;;;0.40;;
40533;SDS011;26233;51.894;10.192;2023-07-28T01:55:06;0.40;;;0.40;;
40533;SDS011;26233;51.894;10.192;2023-07-28T01:57:34;0.50;;;0.40;;
40533;SDS011;26233;51.894;10.192;2023-07-28T02:00:05;0.30;;;0.30;;
40533;SDS011;26233;51.894;10.192;2023-07-28T02:02:35;1.75;;;0.70;;
40533;SDS011;26233;51.894;10.192;2023-07-28T02:05:02;0.40;;;0.40;;
40533;SDS011;26233;51.894;10.192;2023-07-28T02:07:29;0.47;;;0.47;;
40533;SDS011;26233;51.894;10.192;2023-07-28T02:09:56;0.30;;;0.30;;
40533;SDS011;26233;51.894;10.192;2023-07-28T02:12:23;0.57;;;0.40;;
40533;SDS011;26233;51.894;10.192;2023-07-28T02:14:50;0.40;;;0.40;;
40533;SDS011;26233;51.894;10.192;2023-07-28T02:17:17;0.77;;;0.30;;
40533;SDS011;26233;51.894;10.192;2023-07-28T02:19:46;0.43;;;0.40;;
40533;SDS011;26233;51.894;10.192;2023-07-28T02:22:13;0.60;;;0.50;;
40533;SDS011;26233;51.894;10.192;2023-07-28T02:24:40;0.60;;;0.40;;
40533;SDS011;26233;51.894;10.192;2023-07-28T02:27:07;1.48;;;0.50;;
40533;SDS011;26233;51.894;10.192;2023-07-28T02:29:34;1.63;;;0.50;;
40533;SDS011;26233;51.894;10.192;2023-07-28T02:32:01;1.38;;;0.40;;
40533;SDS011;26233;51.894;10.192;2023-07-28T02:34:28;0.45;;;0.45;;
40533;SDS011;26233;51.894;10.192;2023-07-28T02:36:56;0.40;;;0.30;;
40533;SDS011;26233;51.894;10.192;2023-07-28T02:39:24;0.50;;;0.40;;
40533;SDS011;26233;51.894;10.192;2023-07-28T02:41:51;0.40;;;0.40;;
40533;SDS011;26233;51.894;10.192;2023-07-28T02:44:18;0.40;;;0.40;;
40533;SDS011;26233;51.894;10.192;2023-07-28T02:46:45;0.55;;;0.50;;
40533;SDS011;26233;51.894;10.192;2023-07-28T02:49:12;0.40;;;0.40;;
40533;SDS011;26233;51.894;10.192;2023-07-28T02:51:39;0.30;;;0.30;;
40533;SDS011;26233;51.894;10.192;2023-07-28T02:54:08;0.38;;;0.38;;
40533;SDS011;26233;51.894;10.192;2023-07-28T02:56:36;0.60;;;0.50;;
40533;SDS011;26233;51.894;10.192;2023-07-28T02:59:03;1.42;;;0.40;;
40533;SDS011;26233;51.894;10.192;2023-07-28T03:01:30;0.50;;;0.50;;
40533;SDS011;26233;51.894;10.192;2023-07-28T03:03:58;1.27;;;0.50;;
40533;SDS011;26233;51.894;10.192;2023-07-28T03:06:26;0.60;;;0.50;;
40533;SDS011;26233;51.894;10.192;2023-07-28T03:08:53;0.45;;;0.40;;
40533;SDS011;26233;51.894;10.192;2023-07-28T03:11:22;0.63;;;0.45;;
40533;SDS011;26233;51.894;10.192;2023-07-28T03:13:49;1.25;;;0.50;;
40533;SDS011;26233;51.894;10.192;2023-07-28T03:16:16;0.40;;;0.40;;
40533;SDS011;26233;51.894;10.192;2023-07-28T03:18:43;0.40;;;0.40;;
40533;SDS011;26233;51.894;10.192;2023-07-28T03:21:11;2.05;;;0.50;;
40533;SDS011;26233;51.894;10.192;2023-07-28T03:23:38;2.05;;;0.60;;
40533;SDS011;26233;51.894;10.192;2023-07-28T03:26:05;0.60;;;0.50;;
40533;SDS011;26233;51.894;10.192;2023-07-28T03:28:33;0.50;;;0.50;;
40533;SDS011;26233;51.894;10.192;2023-07-28T03:31:00;0.50;;;0.50;;
40533;SDS011;26233;51.894;10.192;2023-07-28T03:33:27;0.55;;;0.47;;
40533;SDS011;26233;51.894;10.192;2023-07-28T03:35:55;0.80;;;0.47;;
40533;SDS011;26233;51.894;10.192;2023-07-28T03:38:22;0.40;;;0.40;;
40533;SDS011;26233;51.894;10.192;2023-07-28T03:40:49;0.85;;;0.50;;
40533;SDS011;26233;51.894;10.192;2023-07-28T03:43:16;0.50;;;0.50;;
40533;SDS011;26233;51.894;10.192;2023-07-28T03:45:45;1.95;;;0.60;;
40533;SDS011;26233;51.894;10.192;2023-07-28T03:48:12;0.60;;;0.57;;
40533;SDS011;26233;51.894;10.192;2023-07-28T03:50:39;1.17;;;0.80;;
40533;SDS011;26233;51.894;10.192;2023-07-28T03:53:06;0.70;;;0.70;;
40533;SDS011;26233;51.894;10.192;2023-07-28T03:55:36;0.98;;;0.80;;
40533;SDS011;26233;51.894;10.192;2023-07-28T03:58:03;1.08;;;0.60;;
40533;SDS011;26233;51.894;10.192;2023-07-28T04:00:30;1.30;;;0.73;;
40533;SDS011;26233;51.894;10.192;2023-07-28T04:02:58;0.70;;;0.70;;
40533;SDS011;26233;51.894;10.192;2023-07-28T04:05:25;0.68;;;0.68;;
40533;SDS011;26233;51.894;10.192;2023-07-28T04:07:52;0.82;;;0.70;;
40533;SDS011;26233;51.894;10.192;2023-07-28T04:10:19;1.00;;;0.70;;
40533;SDS011;26233;51.894;10.192;2023-07-28T04:12:47;1.25;;;0.80;;
40533;SDS011;26233;51.894;10.192;2023-07-28T04:15:14;0.98;;;0.70;;
40533;SDS011;26233;51.894;10.192;2023-07-28T04:17:41;0.90;;;0.60;;
40533;SDS011;26233;51.894;10.192;2023-07-28T04:20:10;0.93;;;0.70;;
40533;SDS011;26233;51.894;10.192;2023-07-28T04:22:37;1.05;;;0.63;;
40533;SDS011;26233;51.894;10.192;2023-07-28T04:25:05;1.17;;;0.60;;
40533;SDS011;26233;51.894;10.192;2023-07-28T04:27:33;1.17;;;0.73;;
40533;SDS011;26233;51.894;10.192;2023-07-28T04:30:00;0.60;;;0.60;;
40533;SDS011;26233;51.894;10.192;2023-07-28T04:32:27;0.82;;;0.70;;
40533;SDS011;26233;51.894;10.192;2023-07-28T04:34:54;0.80;;;0.70;;
40533;SDS011;26233;51.894;10.192;2023-07-28T04:37:23;0.70;;;0.68;;
40533;SDS011;26233;51.894;10.192;2023-07-28T04:39:50;0.70;;;0.70;;
40533;SDS011;26233;51.894;10.192;2023-07-28T04:42:18;0.98;;;0.88;;
40533;SDS011;26233;51.894;10.192;2023-07-28T04:44:45;0.70;;;0.60;;
40533;SDS011;26233;51.894;10.192;2023-07-28T04:47:12;0.60;;;0.60;;
40533;SDS011;26233;51.894;10.192;2023-07-28T04:49:39;0.80;;;0.80;;
40533;SDS011;26233;51.894;10.192;2023-07-28T04:52:07;1.05;;;0.80;;
40533;SDS011;26233;51.894;10.192;2023-07-28T04:54:35;0.73;;;0.73;;
40533;SDS011;26233;51.894;10.192;2023-07-28T04:57:03;0.85;;;0.60;;
40533;SDS011;26233;51.894;10.192;2023-07-28T04:59:30;0.63;;;0.63;;
40533;SDS011;26233;51.894;10.192;2023-07-28T05:01:57;0.75;;;0.75;;
40533;SDS011;26233;51.894;10.192;2023-07-28T05:04:24;1.48;;;0.80;;
40533;SDS011;26233;51.894;10.192;2023-07-28T05:06:52;0.70;;;0.70;;
40533;SDS011;26233;51.894;10.192;2023-07-28T05:09:19;0.70;;;0.70;;
40533;SDS011;26233;51.894;10.192;2023-07-28T05:11:48;0.77;;;0.75;;
40533;SDS011;26233;51.894;10.192;2023-07-28T05:14:15;0.80;;;0.80;;
40533;SDS011;26233;51.894;10.192;2023-07-28T05:16:42;0.73;;;0.73;;
40533;SDS011;26233;51.894;10.192;2023-07-28T05:19:09;1.10;;;1.00;;
40533;SDS011;26233;51.894;10.192;2023-07-28T05:21:36;1.00;;;0.85;;
40533;SDS011;26233;51.894;10.192;2023-07-28T05:24:03;0.70;;;0.70;;
40533;SDS011;26233;51.894;10.192;2023-07-28T05:26:30;0.80;;;0.80;;
40533;SDS011;26233;51.894;10.192;2023-07-28T05:28:59;1.35;;;0.80;;
40533;SDS011;26233;51.894;10.192;2023-07-28T05:31:26;0.80;;;0.80;;
40533;SDS011;26233;51.894;10.192;2023-07-28T05:33:53;1.15;;;0.90;;
40533;SDS011;26233;51.894;10.192;2023-07-28T05:36:20;1.60;;;0.90;;
40533;SDS011;26233;51.894;10.192;2023-07-28T05:38:47;1.15;;;1.05;;
40533;SDS011;26233;51.894;10.192;2023-07-28T05:41:14;1.00;;;0.90;;
40533;SDS011;26233;51.894;10.192;2023-07-28T05:43:42;1.10;;;1.00;;
40533;SDS011;26233;51.894;10.192;2023-07-28T05:46:10;1.20;;;1.10;;
40533;SDS011;26233;51.894;10.192;2023-07-28T05:48:37;1.10;;;1.00;;
40533;SDS011;26233;51.894;10.192;2023-07-28T05:51:04;1.00;;;1.00;;
40533;SDS011;26233;51.894;10.192;2023-07-28T05:53:31;0.98;;;0.90;;
40533;SDS011;26233;51.894;10.192;2023-07-28T05:55:58;2.00;;;1.13;;
40533;SDS011;26233;51.894;10.192;2023-07-28T05:58:25;1.00;;;0.90;;
40533;SDS011;26233;51.894;10.192;2023-07-28T06:00:52;1.20;;;1.10;;
40533;SDS011;26233;51.894;10.192;2023-07-28T06:03:21;1.17;;;1.08;;
40533;SDS011;26233;51.894;10.192;2023-07-28T06:05:49;1.40;;;1.30;;
40533;SDS011;26233;51.894;10.192;2023-07-28T06:08:16;1.35;;;1.25;;
40533;SDS011;26233;51.894;10.192;2023-07-28T06:10:43;1.40;;;1.30;;
40533;SDS011;26233;51.894;10.192;2023-07-28T06:13:10;1.75;;;1.38;;
40533;SDS011;26233;51.894;10.192;2023-07-28T06:15:38;1.33;;;1.23;;
40533;SDS011;26233;51.894;10.192;2023-07-28T06:18:07;1.98;;;1.20;;
40533;SDS011;26233;51.894;10.192;2023-07-28T06:20:36;1.20;;;1.10;;
40533;SDS011;26233;51.894;10.192;2023-07-28T06:23:03;1.33;;;1.10;;
40533;SDS011;26233;51.894;10.192;2023-07-28T06:25:30;1.88;;;1.30;;
40533;SDS011;26233;51.894;10.192;2023-07-28T06:27:57;1.50;;;1.40;;
40533;SDS011;26233;51.894;10.192;2023-07-28T06:30:24;1.60;;;1.50;;
40533;SDS011;26233;51.894;10.192;2023-07-28T06:32:51;1.50;;;1.40;;
40533;SDS011;26233;51.894;10.192;2023-07-28T06:35:21;1.55;;;1.45;;
40533;SDS011;26233;51.894;10.192;2023-07-28T06:37:49;1.52;;;1.42;;
40533;SDS011;26233;51.894;10.192;2023-07-28T06:40:16;1.60;;;1.50;;
40533;SDS011;26233;51.894;10.192;2023-07-28T06:42:43;1.67;;;1.58;;
40533;SDS011;26233;51.894;10.192;2023-07-28T06:45:11;1.67;;;1.58;;
40533;SDS011;26233;51.894;10.192;2023-07-28T06:47:39;1.50;;;1.40;;
40533;SDS011;26233;51.894;10.192;2023-07-28T06:50:06;1.60;;;1.50;;
40533;SDS011;26233;51.894;10.192;2023-07-28T06:52:34;2.00;;;1.90;;
40533;SDS011;26233;51.894;10.192;2023-07-28T06:55:03;1.80;;;1.70;;
40533;SDS011;26233;51.894;10.192;2023-07-28T06:57:31;1.70;;;1.60;;
40533;SDS011;26233;51.894;10.192;2023-07-28T07:00:00;1.75;;;1.65;;
40533;SDS011;26233;51.894;10.192;2023-07-28T07:02:28;1.60;;;1.50;;
40533;SDS011;26233;51.894;10.192;2023-07-28T07:04:55;1.80;;;1.70;;
40533;SDS011;26233;51.894;10.192;2023-07-28T07:07:22;1.58;;;1.48;;
40533;SDS011;26233;51.894;10.192;2023-07-28T07:09:50;1.60;;;1.50;;
40533;SDS011;26233;51.894;10.192;2023-07-28T07:12:19;1.60;;;1.50;;
40533;SDS011;26233;51.894;10.192;2023-07-28T07:14:46;1.75;;;1.58;;
40533;SDS011;26233;51.894;10.192;2023-07-28T07:17:13;1.50;;;1.40;;
40533;SDS011;26233;51.894;10.192;2023-07-28T07:19:40;1.67;;;1.58;;
40533;SDS011;26233;51.894;10.192;2023-07-28T07:22:07;1.50;;;1.40;;
40533;SDS011;26233;51.894;10.192;2023-07-28T07:24:34;1.48;;;1.38;;
40533;SDS011;26233;51.894;10.192;2023-07-28T07:27:02;1.67;;;1.58;;
40533;SDS011;26233;51.894;10.192;2023-07-28T07:29:31;1.35;;;1.25;;
40533;SDS011;26233;51.894;10.192;2023-07-28T07:31:59;1.70;;;1.60;;
40533;SDS011;26233;51.894;10.192;2023-07-28T07:34:26;1.67;;;1.50;;
40533;SDS011;26233;51.894;10.192;2023-07-28T07:36:53;1.35;;;1.25;;
40533;SDS011;26233;51.894;10.192;2023-07-28T07:39:22;1.63;;;1.52;;
40533;SDS011;26233;51.894;10.192;2023-07-28T07:41:49;1.58;;;1.48;;
40533;SDS011;26233;51.894;10.192;2023-07-28T07:44:16;1.55;;;1.45;;
40533;SDS011;26233;51.894;10.192;2023-07-28T07:46:44;1.55;;;1.45;;
40533;SDS011;26233;51.894;10.192;2023-07-28T07:49:11;2.42;;;1.60;;
40533;SDS011;26233;51.894;10.192;2023-07-28T07:51:38;1.63;;;1.52;;
40533;SDS011;26233;51.894;10.192;2023-07-28T07:54:05;1.50;;;1.40;;
40533;SDS011;26233;51.894;10.192;2023-07-28T07:56:33;1.58;;;1.48;;
40533;SDS011;26233;51.894;10.192;2023-07-28T07:59:00;1.60;;;1.50;;
40533;SDS011;26233;51.894;10.192;2023-07-28T08:01:27;1.60;;;1.50;;
40533;SDS011;26233;51.894;10.192;2023-07-28T08:03:55;1.60;;;1.50;;
40533;SDS011;26233;51.894;10.192;2023-07-28T08:06:22;2.25;;;1.60;;
40533;SDS011;26233;51.894;10.192;2023-07-28T08:08:49;1.70;;;1.60;;
40533;SDS011;26233;51.894;10.192;2023-07-28T08:11:17;2.00;;;1.83;;
40533;SDS011;26233;51.894;10.192;2023-07-28T08:13:45;1.88;;;1.52;;
40533;SDS011;26233;51.894;10.192;2023-07-28T08:16:13;1.52;;;1.42;;
40533;SDS011;26233;51.894;10.192;2023-07-28T08:18:40;1.60;;;1.50;;
40533;SDS011;26233;51.894;10.192;2023-07-28T08:21:09;1.70;;;1.60;;
40533;SDS011;26233;51.894;10.192;2023-07-28T08:23:36;1.73;;;1.63;;
40533;SDS011;26233;51.894;10.192;2023-07-28T08:26:03;1.77;;;1.67;;
40533;SDS011;26233;51.894;10.192;2023-07-28T08:28:30;1.90;;;1.80;;
40533;SDS011;26233;51.894;10.192;2023-07-28T08:30:57;2.58;;;1.50;;
40533;SDS011;26233;51.894;10.192;2023-07-28T08:33:25;1.60;;;1.50;;
40533;SDS011;26233;51.894;10.192;2023-07-28T08:35:52;2.08;;;1.60;;
40533;SDS011;26233;51.894;10.192;2023-07-28T08:38:20;1.55;;;1.38;;
40533;SDS011;26233;51.894;10.192;2023-07-28T08:40:47;1.80;;;1.70;;
40533;SDS011;26233;51.894;10.192;2023-07-28T08:43:14;1.50;;;1.40;;
40533;SDS011;26233;51.894;10.192;2023-07-28T08:45:42;2.00;;;1.80;;
40533;SDS011;26233;51.894;10.192;2023-07-28T08:48:09;1.95;;;1.75;;
40533;SDS011;26233;51.894;10.192;2023-07-28T08:50:36;2.05;;;1.55;;
40533;SDS011;26233;51.894;10.192;2023-07-28T08:53:04;1.95;;;1.83;;
40533;SDS011;26233;51.894;10.192;2023-07-28T08:55:32;1.85;;;1.75;;
40533;SDS011;26233;51.894;10.192;2023-07-28T08:58:13;1.90;;;1.80;;
40533;SDS011;26233;51.894;10.192;2023-07-28T09:00:41;1.90;;;1.80;;
40533;SDS011;26233;51.894;10.192;2023-07-28T09:03:09;2.47;;;1.98;;
40533;SDS011;26233;51.894;10.192;2023-07-28T09:05:36;2.38;;;1.85;;
40533;SDS011;26233;51.894;10.192;2023-07-28T09:08:05;2.00;;;1.90;;
40533;SDS011;26233;51.894;10.192;2023-07-28T09:10:44;2.00;;;1.90;;
40533;SDS011;26233;51.894;10.192;2023-07-28T09:13:14;1.67;;;1.58;;
40533;SDS011;26233;51.894;10.192;2023-07-28T09:15:43;2.20;;;1.98;;
40533;SDS011;26233;51.894;10.192;2023-07-28T09:18:10;1.80;;;1.70;;
40533;SDS011;26233;51.894;10.192;2023-07-28T09:20:40;1.70;;;1.60;;
40533;SDS011;26233;51.894;10.192;2023-07-28T09:23:08;1.80;;;1.70;;
40533;SDS011;26233;51.894;10.192;2023-07-28T09:25:36;2.10;;;1.88;;
40533;SDS011;26233;51.894;10.192;2023-07-28T09:28:05;2.22;;;1.70;;
40533;SDS011;26233;51.894;10.192;2023-07-28T09:30:46;2.85;;;1.80;;
40533;SDS011;26233;51.894;10.192;2023-07-28T09:33:28;1.77;;;1.60;;
40533;SDS011;26233;51.894;10.192;2023-07-28T09:35:56;1.45;;;1.35;;
40533;SDS011;26233;51.894;10.192;2023-07-28T09:38:31;1.80;;;1.70;;
40533;SDS011;26233;51.894;10.192;2023-07-28T09:40:59;1.70;;;1.60;;
40533;SDS011;26233;51.894;10.192;2023-07-28T09:43:28;1.80;;;1.70;;
40533;SDS011;26233;51.894;10.192;2023-07-28T09:45:55;1.83;;;1.73;;
40533;SDS011;26233;51.894;10.192;2023-07-28T09:48:22;1.63;;;1.52;;
40533;SDS011;26233;51.894;10.192;2023-07-28T09:50:52;1.80;;;1.70;;
40533;SDS011;26233;51.894;10.192;2023-07-28T09:53:19;3.17;;;1.85;;
40533;SDS011;26233;51.894;10.192;2023-07-28T09:55:46;1.80;;;1.70;;
40533;SDS011;26233;51.894;10.192;2023-07-28T09:58:16;2.13;;;1.85;;
40533;SDS011;26233;51.894;10.192;2023-07-28T10:00:47;1.77;;;1.67;;
40533;SDS011;26233;51.894;10.192;2023-07-28T10:03:15;1.80;;;1.65;;
40533;SDS011;26233;51.894;10.192;2023-07-28T10:05:43;3.17;;;1.73;;
40533;SDS011;26233;51.894;10.192;2023-07-28T10:08:11;1.77;;;1.67;;
40533;SDS011;26233;51.894;10.192;2023-07-28T10:10:39;1.70;;;1.60;;
40533;SDS011;26233;51.894;10.192;2023-07-28T10:13:18;2.13;;;1.60;;
40533;SDS011;26233;51.894;10.192;2023-07-28T10:15:48;1.80;;;1.70;;
40533;SDS011;26233;51.894;10.192;2023-07-28T10:18:16;1.80;;;1.70;;
40533;SDS011;26233;51.894;10.192;2023-07-28T10:20:47;1.80;;;1.70;;
40533;SDS011;26233;51.894;10.192;2023-07-28T10:23:15;1.80;;;1.70;;
40533;SDS011;26233;51.894;10.192;2023-07-28T10:25:44;1.98;;;1.88;;
40533;SDS011;26233;51.894;10.192;2023-07-28T10:31:05;2.53;;;2.33;;
40533;SDS011;26233;51.894;10.192;2023-07-28T10:33:33;2.80;;;2.60;;
40533;SDS011;26233;51.894;10.192;2023-07-28T10:36:12;2.80;;;2.60;;
40533;SDS011;26233;51.894;10.192;2023-07-28T10:38:42;2.90;;;2.70;;
40533;SDS011;26233;51.894;10.192;2023-07-28T10:41:10;2.90;;;2.70;;
40533;SDS011;26233;51.894;10.192;2023-07-28T10:43:41;2.85;;;2.65;;
40533;SDS011;26233;51.894;10.192;2023-07-28T10:46:10;3.00;;;2.80;;
40533;SDS011;26233;51.894;10.192;2023-07-28T10:48:41;2.75;;;2.55;;
40533;SDS011;26233;51.894;10.192;2023-07-28T10:51:10;3.22;;;3.03;;
40533;SDS011;26233;51.894;10.192;2023-07-28T10:53:38;3.20;;;2.95;;
40533;SDS011;26233;51.894;10.192;2023-07-28T10:56:05;3.47;;;3.28;;
40533;SDS011;26233;51.894;10.192;2023-07-28T10:58:35;3.50;;;3.30;;
40533;SDS011;26233;51.894;10.192;2023-07-28T11:01:02;3.47;;;3.25;;
40533;SDS011;26233;51.894;10.192;2023-07-28T11:03:31;3.22;;;3.03;;
40533;SDS011;26233;51.894;10.192;2023-07-28T11:05:58;3.70;;;3.40;;
40533;SDS011;26233;51.894;10.192;2023-07-28T11:08:26;4.25;;;3.95;;
40533;SDS011;26233;51.894;10.192;2023-07-28T11:10:53;3.88;;;3.58;;
40533;SDS011;26233;51.894;10.192;2023-07-28T11:13:20;4.10;;;3.80;;
40533;SDS011;26233;51.894;10.192;2023-07-28T11:15:50;4.25;;;3.95;;
40533;SDS011;26233;51.894;10.192;2023-07-28T11:18:18;4.25;;;3.95;;
40533;SDS011;26233;51.894;10.192;2023-07-28T11:20:47;4.10;;;3.80;;
40533;SDS011;26233;51.894;10.192;2023-07-28T11:23:14;4.70;;;3.95;;
40533;SDS011;26233;51.894;10.192;2023-07-28T11:25:42;4.40;;;4.10;;
40533;SDS011;26233;51.894;10.192;2023-07-28T11:28:12;4.40;;;4.10;;
40533;SDS011;26233;51.894;10.192;2023-07-28T11:30:39;4.32;;;3.92;;
40533;SDS011;26233;51.894;10.192;2023-07-28T11:33:08;4.38;;;4.07;;
40533;SDS011;26233;51.894;10.192;2023-07-28T11:35:37;4.15;;;3.85;;
40533;SDS011;26233;51.894;10.192;2023-07-28T11:38:06;4.10;;;3.80;;
40533;SDS011;26233;51.894;10.192;2023-07-28T11:40:34;4.22;;;4.03;;
40533;SDS011;26233;51.894;10.192;2023-07-28T11:43:02;3.85;;;3.65;;
40533;SDS011;26233;51.894;10.192;2023-07-28T11:45:30;4.10;;;3.80;;
40533;SDS011;26233;51.894;10.192;2023-07-28T11:47:58;4.38;;;4.07;;
40533;SDS011;26233;51.894;10.192;2023-07-28T11:50:27;4.97;;;4.57;;
40533;SDS011;26233;51.894;10.192;2023-07-28T11:52:57;4.53;;;4.22;;
40533;SDS011;26233;51.894;10.192;2023-07-28T11:55:28;4.70;;;4.40;;
40533;SDS011;26233;51.894;10.192;2023-07-28T11:57:55;4.40;;;4.13;;
40533;SDS011;26233;51.894;10.192;2023-07-28T12:00:28;5.30;;;4.90;;
40533;SDS011;26233;51.894;10.192;2023-07-28T12:03:06;5.10;;;4.70;;
40533;SDS011;26233;51.894;10.192;2023-07-28T12:05:35;5.10;;;4.80;;
40533;SDS011;26233;51.894;10.192;2023-07-28T12:08:04;5.05;;;4.65;;
40533;SDS011;26233;51.894;10.192;2023-07-28T12:10:34;5.18;;;4.88;;
40533;SDS011;26233;51.894;10.192;2023-07-28T12:13:04;5.43;;;5.03;;
40533;SDS011;26233;51.894;10.192;2023-07-28T12:15:32;6.32;;;5.72;;
40533;SDS011;26233;51.894;10.192;2023-07-28T12:18:04;6.22;;;5.82;;
40533;SDS011;26233;51.894;10.192;2023-07-28T12:20:35;5.93;;;5.40;;
40533;SDS011;26233;51.894;10.192;2023-07-28T12:23:04;5.57;;;5.18;;
40533;SDS011;26233;51.894;10.192;2023-07-28T12:25:34;5.47;;;5.13;;
40533;SDS011;26233;51.894;10.192;2023-07-28T12:28:02;5.75;;;5.32;;
40533;SDS011;26233;51.894;10.192;2023-07-28T12:30:31;4.78;;;4.47;;
40533;SDS011;26233;51.894;10.192;2023-07-28T12:32:58;5.13;;;4.72;;
40533;SDS011;26233;51.894;10.192;2023-07-28T12:35:25;4.93;;;4.63;;
40533;SDS011;26233;51.894;10.192;2023-07-28T12:37:56;4.75;;;4.45;;
40533;SDS011;26233;51.894;10.192;2023-07-28T12:40:25;5.10;;;4.80;;
40533;SDS011;26233;51.894;10.192;2023-07-28T12:42:54;4.80;;;4.50;;
40533;SDS011;26233;51.894;10.192;2023-07-28T12:45:21;4.80;;;4.50;;
40533;SDS011;26233;51.894;10.192;2023-07-28T12:47:50;4.70;;;4.40;;
40533;SDS011;26233;51.894;10.192;2023-07-28T12:50:19;5.00;;;4.70;;
40533;SDS011;26233;51.894;10.192;2023-07-28T12:52:46;4.47;;;4.18;;
40533;SDS011;26233;51.894;10.192;2023-07-28T12:55:13;5.00;;;4.70;;
40533;SDS011;26233;51.894;10.192;2023-07-28T12:57:41;5.03;;;4.63;;
40533;SDS011;26233;51.894;10.192;2023-07-28T13:00:10;4.68;;;4.38;;
40533;SDS011;26233;51.894;10.192;2023-07-28T13:02:39;4.35;;;4.05;;
40533;SDS011;26233;51.894;10.192;2023-07-28T13:05:07;4.82;;;4.40;;
40533;SDS011;26233;51.894;10.192;2023-07-28T13:07:36;4.88;;;4.57;;
40533;SDS011;26233;51.894;10.192;2023-07-28T13:10:05;4.57;;;4.28;;
40533;SDS011;26233;51.894;10.192;2023-07-28T13:12:35;4.80;;;4.50;;
40533;SDS011;26233;51.894;10.192;2023-07-28T13:15:02;4.75;;;4.45;;
40533;SDS011;26233;51.894;10.192;2023-07-28T13:17:32;5.03;;;4.72;;
40533;SDS011;26233;51.894;10.192;2023-07-28T13:19:59;5.13;;;4.82;;
40533;SDS011;26233;51.894;10.192;2023-07-28T13:22:26;4.90;;;4.60;;
40533;SDS011;26233;51.894;10.192;2023-07-28T13:24:53;5.40;;;5.10;;
40533;SDS011;26233;51.894;10.192;2023-07-28T13:27:20;5.05;;;4.75;;
40533;SDS011;26233;51.894;10.192;2023-07-28T13:29:47;5.45;;;5.05;;
40533;SDS011;26233;51.894;10.192;2023-07-28T13:32:15;5.20;;;4.90;;
40533;SDS011;26233;51.894;10.192;2023-07-28T13:34:45;5.25;;;4.95;;
40533;SDS011;26233;51.894;10.192;2023-07-28T13:37:12;5.97;;;5.57;;
40533;SDS011;26233;51.894;10.192;2023-07-28T13:39:39;5.32;;;5.03;;
40533;SDS011;26233;51.894;10.192;2023-07-28T13:42:07;6.07;;;5.57;;
40533;SDS011;26233;51.894;10.192;2023-07-28T13:44:35;5.55;;;5.22;;
40533;SDS011;26233;51.894;10.192;2023-07-28T13:47:03;5.35;;;5.05;;
40533;SDS011;26233;51.894;10.192;2023-07-28T13:49:30;5.32;;;5.03;;
40533;SDS011;26233;51.894;10.192;2023-07-28T13:52:02;5.43;;;5.13;;
40533;SDS011;26233;51.894;10.192;2023-07-28T13:54:29;6.00;;;5.60;;
40533;SDS011;26233;51.894;10.192;2023-07-28T13:56:56;5.55;;;5.15;;
40533;SDS011;26233;51.894;10.192;2023-07-28T13:59:24;6.15;;;5.72;;
40533;SDS011;26233;51.894;10.192;2023-07-28T14:01:51;5.63;;;5.28;;
40533;SDS011;26233;51.894;10.192;2023-07-28T14:04:23;5.43;;;5.13;;
40533;SDS011;26233;51.894;10.192;2023-07-28T14:06:50;5.20;;;4.80;;
40533;SDS011;26233;51.894;10.192;2023-07-28T14:09:18;5.32;;;4.93;;
40533;SDS011;26233;51.894;10.192;2023-07-28T14:11:45;5.18;;;4.88;;
40533;SDS011;26233;51.894;10.192;2023-07-28T14:14:13;4.90;;;4.60;;
40533;SDS011;26233;51.894;10.192;2023-07-28T14:16:39;5.15;;;4.82;;
40533;SDS011;26233;51.894;10.192;2023-07-28T14:19:07;5.15;;;4.85;;
40533;SDS011;26233;51.894;10.192;2023-07-28T14:21:36;5.20;;;4.90;;
40533;SDS011;26233;51.894;10.192;2023-07-28T14:24:04;5.10;;;4.80;;
40533;SDS011;26233;51.894;10.192;2023-07-28T14:26:32;4.60;;;4.30;;
40533;SDS011;26233;51.894;10.192;2023-07-28T14:28:59;4.85;;;4.55;;
40533;SDS011;26233;51.894;10.192;2023-07-28T14:31:26;4.78;;;4.47;;
40533;SDS011;26233;51.894;10.192;2023-07-28T14:33:54;4.75;;;4.45;;
40533;SDS011;26233;51.894;10.192;2023-07-28T14:36:21;5.03;;;4.72;;
40533;SDS011;26233;51.894;10.192;2023-07-28T14:38:48;4.75;;;4.45;;
40533;SDS011;26233;51.894;10.192;2023-07-28T14:41:15;4.93;;;4.63;;